createdAt,value
2022-08-25T00:00:44.965Z,20.51
2022-08-25T00:01:54.607Z,20.44
2022-08-25T00:02:59.390Z,20.47
2022-08-25T00:04:07.378Z,20.45
2022-08-25T00:05:11.618Z,20.43
2022-08-25T00:06:16.855Z,20.43
2022-08-25T00:07:20.813Z,20.39
2022-08-25T00:08:26.345Z,20.38
2022-08-25T00:09:31.846Z,20.38
2022-08-25T00:10:38.254Z,20.37
2022-08-25T00:11:45.885Z,20.35
2022-08-25T00:12:49.939Z,20.27
2022-08-25T00:13:56.967Z,20.27
2022-08-25T00:15:01.082Z,20.24
2022-08-25T00:16:05.218Z,20.23
2022-08-25T00:17:09.481Z,20.21
2022-08-25T00:18:20.064Z,20.21
2022-08-25T00:19:22.222Z,20.19
2022-08-25T00:20:28.940Z,20.20
2022-08-25T00:21:33.687Z,20.17
2022-08-25T00:22:38.479Z,20.18
2022-08-25T00:23:42.791Z,20.15
2022-08-25T00:24:46.888Z,20.15
2022-08-25T00:25:51.050Z,20.09
2022-08-25T00:26:57.584Z,20.10
2022-08-25T00:28:06.419Z,20.07
2022-08-25T00:29:07.606Z,20.04
2022-08-25T00:30:12.556Z,20.04
2022-08-25T00:31:20.252Z,20.06
2022-08-25T00:32:24.428Z,20.07
2022-08-25T00:33:29.730Z,20.04
2022-08-25T00:34:38.066Z,20.01
2022-08-25T00:35:43.278Z,19.96
2022-08-25T00:36:47.737Z,19.96
2022-08-25T00:37:51.763Z,19.97
2022-08-25T00:38:56.353Z,19.97
2022-08-25T00:40:00.442Z,19.97
2022-08-25T00:41:04.549Z,19.92
2022-08-25T00:42:16.102Z,19.94
2022-08-25T00:43:17.708Z,19.93
2022-08-25T00:44:22.002Z,19.93
2022-08-25T00:45:26.527Z,19.89
2022-08-25T00:46:34.046Z,19.85
2022-08-25T00:47:38.272Z,19.83
2022-08-25T00:48:44.815Z,19.78
2022-08-25T00:49:51.802Z,19.78
2022-08-25T00:50:56.565Z,19.73
2022-08-25T00:52:06.613Z,19.73
2022-08-25T00:53:10.665Z,19.69
2022-08-25T00:54:18.015Z,19.71
2022-08-25T00:55:25.354Z,19.70
2022-08-25T00:56:30.351Z,19.66
2022-08-25T00:57:37.321Z,19.61
2022-08-25T00:58:42.695Z,19.59
2022-08-25T00:59:47.025Z,19.58
2022-08-25T01:00:53.516Z,19.55
2022-08-25T01:02:00.000Z,19.53
2022-08-25T01:03:04.727Z,19.47
2022-08-25T01:04:08.879Z,19.43
2022-08-25T01:05:13.051Z,19.43
2022-08-25T01:06:17.878Z,19.39
2022-08-25T01:07:22.385Z,19.41
2022-08-25T01:08:29.390Z,19.39
2022-08-25T01:09:36.999Z,19.37
2022-08-25T01:10:43.834Z,19.38
2022-08-25T01:11:48.923Z,19.35
2022-08-25T01:12:55.707Z,19.35
2022-08-25T01:14:01.683Z,19.34
2022-08-25T01:15:08.907Z,19.30
2022-08-25T01:16:15.405Z,19.30
2022-08-25T01:17:20.078Z,19.29
2022-08-25T01:18:26.708Z,19.26
2022-08-25T01:19:32.103Z,19.26
2022-08-25T01:20:37.031Z,19.21
2022-08-25T01:21:44.039Z,19.21
2022-08-25T01:22:54.978Z,19.18
2022-08-25T01:23:57.459Z,19.18
2022-08-25T01:25:04.642Z,19.15
2022-08-25T01:26:16.182Z,19.18
2022-08-25T01:27:20.365Z,19.18
2022-08-25T01:28:24.403Z,19.15
2022-08-25T01:29:29.515Z,19.15
2022-08-25T01:30:37.509Z,19.11
2022-08-25T01:31:41.793Z,19.11
2022-08-25T01:32:46.241Z,19.11
2022-08-25T01:33:50.338Z,19.14
2022-08-25T01:34:54.385Z,19.10
2022-08-25T01:35:58.433Z,19.10
2022-08-25T01:37:04.885Z,19.09
2022-08-25T01:38:10.646Z,19.03
2022-08-25T01:39:15.146Z,19.04
2022-08-25T01:40:19.895Z,19.04
2022-08-25T01:41:35.819Z,19.02
2022-08-25T01:43:00.855Z,19.05
2022-08-25T01:44:05.639Z,19.02
2022-08-25T01:45:11.258Z,19.02
2022-08-25T01:46:15.949Z,18.97
2022-08-25T01:47:20.625Z,18.97
2022-08-25T01:48:24.746Z,18.98
2022-08-25T01:49:29.200Z,18.98
2022-08-25T01:50:35.026Z,18.98
2022-08-25T01:51:42.010Z,18.95
2022-08-25T01:52:58.015Z,18.92
2022-08-25T01:54:02.169Z,18.87
2022-08-25T01:55:06.847Z,18.90
2022-08-25T01:56:15.380Z,18.90
2022-08-25T01:57:20.756Z,18.85
2022-08-25T01:58:27.452Z,18.86
2022-08-25T01:59:34.217Z,18.88
2022-08-25T02:00:39.622Z,18.88
2022-08-25T02:01:43.867Z,18.82
2022-08-25T02:02:52.244Z,18.82
2022-08-25T02:03:56.004Z,18.81
2022-08-25T02:05:01.554Z,18.79
2022-08-25T02:06:09.997Z,18.79
2022-08-25T02:07:14.245Z,18.76
2022-08-25T02:08:18.633Z,18.76
2022-08-25T02:09:25.851Z,18.79
2022-08-25T02:10:29.103Z,18.79
2022-08-25T02:11:33.586Z,18.76
2022-08-25T02:12:37.975Z,18.75
2022-08-25T02:13:43.262Z,18.75
2022-08-25T02:14:47.242Z,18.75
2022-08-25T02:15:54.193Z,18.74
2022-08-25T02:16:58.569Z,18.69
2022-08-25T02:18:03.097Z,18.69
2022-08-25T02:19:11.549Z,18.68
2022-08-25T02:20:15.973Z,18.69
2022-08-25T02:21:21.627Z,18.69
2022-08-25T02:22:25.649Z,18.65
2022-08-25T02:23:29.773Z,18.65
2022-08-25T02:24:33.943Z,18.63
2022-08-25T02:25:39.837Z,18.62
2022-08-25T02:26:44.359Z,18.63
2022-08-25T02:27:48.309Z,18.64
2022-08-25T02:28:53.513Z,18.62
2022-08-25T02:29:59.001Z,18.58
2022-08-25T02:31:04.068Z,18.60
2022-08-25T02:32:11.043Z,18.53
2022-08-25T02:33:15.071Z,18.53
2022-08-25T02:34:22.135Z,18.53
2022-08-25T02:35:26.208Z,18.50
2022-08-25T02:36:30.738Z,18.55
2022-08-25T02:37:35.625Z,18.53
2022-08-25T02:38:40.520Z,18.53
2022-08-25T02:39:44.603Z,18.48
2022-08-25T02:40:48.841Z,18.44
2022-08-25T02:41:52.934Z,18.44
2022-08-25T02:42:56.957Z,18.41
2022-08-25T02:44:03.156Z,18.39
2022-08-25T02:45:07.769Z,18.40
2022-08-25T02:46:13.891Z,18.38
2022-08-25T02:47:22.672Z,18.38
2022-08-25T02:48:26.729Z,18.34
2022-08-25T02:49:30.826Z,18.35
2022-08-25T02:50:34.791Z,18.29
2022-08-25T02:51:38.775Z,18.28
2022-08-25T02:52:42.836Z,18.27
2022-08-25T02:53:46.794Z,18.28
2022-08-25T02:54:51.328Z,18.27
2022-08-25T02:55:55.947Z,18.26
2022-08-25T02:57:00.166Z,18.26
2022-08-25T02:58:04.390Z,18.23
2022-08-25T02:59:08.565Z,18.24
2022-08-25T03:00:15.371Z,18.24
2022-08-25T03:01:19.531Z,18.22
2022-08-25T03:02:24.027Z,18.24
2022-08-25T03:03:27.977Z,18.24
2022-08-25T03:04:32.136Z,18.24
2022-08-25T03:05:36.256Z,18.28
2022-08-25T03:06:40.355Z,18.27
2022-08-25T03:07:45.869Z,18.27
2022-08-25T03:08:50.060Z,18.31
2022-08-25T03:09:54.164Z,18.33
2022-08-25T03:10:58.285Z,18.35
2022-08-25T03:12:02.344Z,18.37
2022-08-25T03:13:06.525Z,18.40
2022-08-25T03:14:10.652Z,18.45
2022-08-25T03:15:16.677Z,18.55
2022-08-25T03:16:22.986Z,18.62
2022-08-25T03:17:28.658Z,18.70
2022-08-25T03:18:37.385Z,15.50
2022-08-25T03:19:40.450Z,18.82
2022-08-25T03:20:44.926Z,18.84
2022-08-25T03:21:48.986Z,18.90
2022-08-25T03:22:53.431Z,18.89
2022-08-25T03:23:59.466Z,19.01
2022-08-25T03:25:04.915Z,19.08
2022-08-25T03:26:09.716Z,19.08
2022-08-25T03:27:13.933Z,19.39
2022-08-25T03:28:18.468Z,19.39
2022-08-25T03:29:26.498Z,19.49
2022-08-25T03:30:31.417Z,19.70
2022-08-25T03:31:36.094Z,19.70
2022-08-25T03:32:40.278Z,19.87
2022-08-25T03:33:44.311Z,20.01
2022-08-25T03:34:48.280Z,20.08
2022-08-25T03:35:54.121Z,20.27
2022-08-25T03:36:59.013Z,20.27
2022-08-25T03:38:03.155Z,20.51
2022-08-25T03:39:07.140Z,20.51
2022-08-25T03:40:16.405Z,20.60
2022-08-25T03:41:23.530Z,20.90
2022-08-25T03:42:29.391Z,21.04
2022-08-25T03:43:33.403Z,21.23
2022-08-25T03:44:37.401Z,21.34
2022-08-25T03:45:44.003Z,21.34
2022-08-25T03:46:50.586Z,21.51
2022-08-25T03:47:54.733Z,21.72
2022-08-25T03:49:00.220Z,21.82
2022-08-25T03:50:14.000Z,21.82
2022-08-25T03:51:33.735Z,22.08
2022-08-25T04:17:05.692Z,24.49
2022-08-25T04:30:01.003Z,25.31
2022-08-25T04:31:12.795Z,25.45
2022-08-25T04:32:16.844Z,25.52
2022-08-25T04:33:20.917Z,25.52
2022-08-25T04:34:29.360Z,25.57
2022-08-25T04:35:32.490Z,25.71
2022-08-25T04:36:36.840Z,25.71
2022-08-25T04:37:41.014Z,25.84
2022-08-25T04:38:46.532Z,25.84
2022-08-25T04:39:50.536Z,24.92
2022-08-25T04:41:00.411Z,25.99
2022-08-25T04:42:06.076Z,26.13
2022-08-25T04:43:10.303Z,26.13
2022-08-25T04:44:14.340Z,26.14
2022-08-25T04:45:18.453Z,26.19
2022-08-25T04:46:25.774Z,26.30
2022-08-25T04:47:29.995Z,26.36
2022-08-25T04:48:34.919Z,26.46
2022-08-25T04:49:38.952Z,26.55
2022-08-25T04:50:43.064Z,26.55
2022-08-25T04:51:47.845Z,26.60
2022-08-25T04:52:51.880Z,26.60
2022-08-25T04:54:02.313Z,26.65
2022-08-25T04:55:06.077Z,26.73
2022-08-25T04:56:13.715Z,26.84
2022-08-25T04:57:19.116Z,26.84
2022-08-25T04:58:23.954Z,26.88
2022-08-25T04:59:30.329Z,26.88
2022-08-25T05:00:36.658Z,26.96
2022-08-25T05:01:42.322Z,27.07
2022-08-25T05:02:46.339Z,27.11
2022-08-25T05:03:55.917Z,27.00
2022-08-25T05:05:01.217Z,27.12
2022-08-25T05:06:06.258Z,27.12
2022-08-25T05:07:10.342Z,27.12
2022-08-25T05:08:14.322Z,27.03
2022-08-25T05:09:19.822Z,27.09
2022-08-25T05:10:24.890Z,27.08
2022-08-25T05:11:30.998Z,27.13
2022-08-25T05:12:36.727Z,27.17
2022-08-25T05:13:42.446Z,27.17
2022-08-25T05:14:46.572Z,27.19
2022-08-25T05:15:55.782Z,27.19
2022-08-25T05:17:00.314Z,27.24
2022-08-25T05:18:05.546Z,26.77
2022-08-25T05:19:09.883Z,27.25
2022-08-25T05:20:14.564Z,27.27
2022-08-25T05:21:21.491Z,27.27
2022-08-25T05:22:25.638Z,27.23
2022-08-25T05:23:29.845Z,27.13
2022-08-25T05:24:33.863Z,27.14
2022-08-25T05:25:38.216Z,27.18
2022-08-25T05:26:42.646Z,27.24
2022-08-25T05:27:46.628Z,27.24
2022-08-25T05:28:56.377Z,27.34
2022-08-25T05:29:59.490Z,27.34
2022-08-25T05:31:05.574Z,27.25
2022-08-25T05:32:10.305Z,27.25
2022-08-25T05:33:17.015Z,27.28
2022-08-25T05:34:21.316Z,27.30
2022-08-25T05:35:25.380Z,27.32
2022-08-25T05:36:29.950Z,27.32
2022-08-25T05:37:34.019Z,27.39
2022-08-25T05:38:38.739Z,27.32
2022-08-25T05:39:43.980Z,27.36
2022-08-25T05:40:48.232Z,27.43
2022-08-25T05:41:52.254Z,27.43
2022-08-25T05:42:56.333Z,27.43
2022-08-25T05:44:00.381Z,27.39
2022-08-25T05:45:06.113Z,27.44
2022-08-25T05:46:11.467Z,27.52
2022-08-25T05:47:17.753Z,27.50
2022-08-25T05:48:21.648Z,27.50
2022-08-25T05:49:25.706Z,27.60
2022-08-25T05:50:30.234Z,27.60
2022-08-25T05:51:34.320Z,27.40
2022-08-25T05:52:38.561Z,27.46
2022-08-25T05:53:45.006Z,27.41
2022-08-25T05:54:49.143Z,27.43
2022-08-25T05:55:55.779Z,27.43
2022-08-25T05:57:00.098Z,27.27
2022-08-25T05:58:04.174Z,27.27
2022-08-25T05:59:09.661Z,27.32
2022-08-25T06:00:16.705Z,27.36
2022-08-25T06:01:26.815Z,27.38
2022-08-25T06:02:32.700Z,27.50
2022-08-25T06:03:40.706Z,27.48
2022-08-25T06:04:44.994Z,27.48
2022-08-25T06:05:50.433Z,27.61
2022-08-25T06:06:54.563Z,27.61
2022-08-25T06:07:58.987Z,27.77
2022-08-25T06:09:04.047Z,27.77
2022-08-25T06:10:10.282Z,27.97
2022-08-25T06:11:15.303Z,28.01
2022-08-25T06:12:19.461Z,28.01
2022-08-25T06:13:28.728Z,28.06
2022-08-25T06:14:29.250Z,28.06
2022-08-25T06:15:33.367Z,28.12
2022-08-25T06:16:39.957Z,28.17
2022-08-25T06:17:44.137Z,28.26
2022-08-25T06:18:48.135Z,28.27
2022-08-25T06:19:53.173Z,28.27
2022-08-25T06:20:57.254Z,28.29
2022-08-25T06:22:01.341Z,28.29
2022-08-25T06:23:05.697Z,28.41
2022-08-25T06:24:15.353Z,28.38
2022-08-25T06:25:19.531Z,28.38
2022-08-25T06:26:25.354Z,28.26
2022-08-25T06:27:29.336Z,28.26
2022-08-25T06:28:33.377Z,28.29
2022-08-25T06:29:37.994Z,28.29
2022-08-25T06:30:42.553Z,28.26
2022-08-25T06:31:47.006Z,28.26
2022-08-25T06:32:51.104Z,28.31
2022-08-25T06:33:55.191Z,27.81
2022-08-25T06:34:59.527Z,27.81
2022-08-25T06:36:03.946Z,28.59
2022-08-25T06:37:08.080Z,28.68
2022-08-25T06:38:14.968Z,28.68
2022-08-25T06:39:19.148Z,28.75
2022-08-25T06:40:23.475Z,28.87
2022-08-25T06:41:36.557Z,28.90
2022-08-25T06:42:36.394Z,28.97
2022-08-25T06:43:48.069Z,29.02
2022-08-25T06:44:47.754Z,28.99
2022-08-25T06:45:51.767Z,29.01
2022-08-25T06:46:56.057Z,29.16
2022-08-25T06:48:00.164Z,29.16
2022-08-25T06:49:06.103Z,29.24
2022-08-25T06:50:10.887Z,29.30
2022-08-25T06:51:17.745Z,29.30
2022-08-25T06:52:22.045Z,29.41
2022-08-25T06:53:27.712Z,29.42
2022-08-25T06:54:31.711Z,29.42
2022-08-25T06:55:37.129Z,29.48
2022-08-25T06:56:42.681Z,29.48
2022-08-25T06:57:46.718Z,29.51
2022-08-25T06:58:50.748Z,29.51
2022-08-25T06:59:54.735Z,29.49
2022-08-25T07:01:15.750Z,29.53
2022-08-25T07:02:16.797Z,29.53
2022-08-25T07:04:26.869Z,29.61
2022-08-25T07:05:43.448Z,29.66
2022-08-25T07:06:38.287Z,29.66
2022-08-25T07:07:44.142Z,29.40
2022-08-25T07:08:49.582Z,29.40
2022-08-25T07:09:53.612Z,29.42
2022-08-25T07:10:58.732Z,29.48
2022-08-25T07:12:03.341Z,28.60
2022-08-25T07:13:07.336Z,29.52
2022-08-25T07:14:13.847Z,29.52
2022-08-25T07:15:20.892Z,29.58
2022-08-25T07:16:29.891Z,29.60
2022-08-25T07:17:30.416Z,29.57
2022-08-25T07:18:35.625Z,29.57
2022-08-25T07:19:40.907Z,29.55
2022-08-25T07:20:45.396Z,29.55
2022-08-25T07:21:52.502Z,29.47
2022-08-25T07:22:56.535Z,29.42
2022-08-25T07:24:02.417Z,29.46
2022-08-25T07:25:10.072Z,29.46
2022-08-25T07:26:36.268Z,29.45
2022-08-25T07:27:22.169Z,29.46
2022-08-25T07:28:26.207Z,29.54
2022-08-25T07:29:32.882Z,29.54
2022-08-25T07:30:37.412Z,29.65
2022-08-25T07:31:42.014Z,29.69
2022-08-25T07:32:46.215Z,29.69
2022-08-25T07:33:50.265Z,29.78
2022-08-25T07:34:55.022Z,29.81
2022-08-25T07:35:59.230Z,29.81
2022-08-25T07:38:12.983Z,29.85
2022-08-25T07:39:16.230Z,29.92
2022-08-25T07:40:26.500Z,29.92
2022-08-25T07:41:31.330Z,30.05
2022-08-25T07:42:37.679Z,30.05
2022-08-25T07:43:41.686Z,30.01
2022-08-25T07:44:47.248Z,30.01
2022-08-25T07:45:51.199Z,30.06
2022-08-25T07:46:56.467Z,30.06
2022-08-25T07:48:11.991Z,30.06
2022-08-25T07:49:23.200Z,30.03
2022-08-25T07:50:27.339Z,29.95
2022-08-25T07:51:31.395Z,30.03
2022-08-25T07:52:36.279Z,30.10
2022-08-25T07:53:43.371Z,30.10
2022-08-25T07:54:47.405Z,30.17
2022-08-25T07:55:51.586Z,30.20
2022-08-25T07:56:57.405Z,30.20
2022-08-25T07:58:01.415Z,30.25
2022-08-25T07:59:05.681Z,30.25
2022-08-25T08:00:13.972Z,30.17
2022-08-25T08:01:21.028Z,30.25
2022-08-25T08:02:25.241Z,30.25
2022-08-25T08:03:45.133Z,30.18
2022-08-25T08:04:37.455Z,30.18
2022-08-25T08:05:41.889Z,30.27
2022-08-25T08:06:46.113Z,30.28
2022-08-25T08:07:50.172Z,30.28
2022-08-25T08:08:59.165Z,30.48
2022-08-25T08:10:36.996Z,30.54
2022-08-25T08:11:27.462Z,30.55
2022-08-25T08:12:31.767Z,30.55
2022-08-25T08:13:48.948Z,30.55
2022-08-25T08:14:54.146Z,30.58
2022-08-25T08:15:58.186Z,30.57
2022-08-25T08:17:09.957Z,30.57
2022-08-25T08:18:14.068Z,30.49
2022-08-25T08:19:18.382Z,30.49
2022-08-25T08:20:24.695Z,30.61
2022-08-25T08:21:31.865Z,30.65
2022-08-25T08:22:39.121Z,30.65
2022-08-25T08:23:44.968Z,30.69
2022-08-25T08:24:56.154Z,30.70
2022-08-25T08:25:57.836Z,30.74
2022-08-25T08:27:01.811Z,30.74
2022-08-25T08:28:07.095Z,30.77
2022-08-25T08:29:11.551Z,30.82
2022-08-25T08:30:18.159Z,30.83
2022-08-25T08:31:26.515Z,30.88
2022-08-25T08:32:53.020Z,30.90
2022-08-25T08:33:40.657Z,30.89
2022-08-25T08:34:43.858Z,30.89
2022-08-25T08:35:48.465Z,30.89
2022-08-25T08:36:52.999Z,30.91
2022-08-25T08:37:57.274Z,30.95
2022-08-25T08:39:01.331Z,31.02
2022-08-25T08:40:08.694Z,31.02
2022-08-25T08:42:07.192Z,31.06
2022-08-25T08:42:56.000Z,30.91
2022-08-25T08:44:07.222Z,30.96
2022-08-25T08:45:29.194Z,31.01
2022-08-25T08:46:36.330Z,31.01
2022-08-25T08:47:44.789Z,31.01
2022-08-25T08:48:54.361Z,31.01
2022-08-25T08:50:10.160Z,31.11
2022-08-25T08:51:25.014Z,31.11
2022-08-25T08:52:48.789Z,31.13
2022-08-25T08:53:58.553Z,31.15
2022-08-25T08:55:08.984Z,31.20
2022-08-25T08:56:19.652Z,31.23
2022-08-25T08:57:26.022Z,31.30
2022-08-25T08:58:41.842Z,31.30
2022-08-25T08:59:58.328Z,31.35
2022-08-25T09:01:02.506Z,31.31
2022-08-25T09:02:13.678Z,31.31
2022-08-25T09:03:39.522Z,31.36
2022-08-25T09:04:53.136Z,31.40
2022-08-25T09:05:59.807Z,31.37
2022-08-25T09:07:06.943Z,31.37
2022-08-25T09:08:20.459Z,31.36
2022-08-25T09:09:31.029Z,31.42
2022-08-25T09:10:57.645Z,31.42
2022-08-25T09:12:07.540Z,31.33
2022-08-25T09:13:18.213Z,31.31
2022-08-25T09:14:43.099Z,31.27
2022-08-25T09:16:02.161Z,31.24
2022-08-25T09:17:23.838Z,31.24
2022-08-25T09:18:50.924Z,31.23
2022-08-25T09:20:02.563Z,31.23
2022-08-25T09:21:12.589Z,31.26
2022-08-25T09:22:37.675Z,31.32
2022-08-25T09:23:52.211Z,31.33
2022-08-25T09:25:48.684Z,31.34
2022-08-25T09:27:05.860Z,31.35
2022-08-25T09:28:25.430Z,31.35
2022-08-25T09:29:32.428Z,31.30
2022-08-25T09:31:00.446Z,31.42
2022-08-25T09:32:07.585Z,31.42
2022-08-25T09:33:14.418Z,31.43
2022-08-25T09:34:24.390Z,31.49
2022-08-25T09:35:32.266Z,31.49
2022-08-25T09:36:38.918Z,30.67
2022-08-25T09:37:42.918Z,31.57
2022-08-25T09:38:47.110Z,31.50
2022-08-25T09:39:51.231Z,31.54
2022-08-25T09:40:58.254Z,31.54
2022-08-25T09:42:05.885Z,31.53
2022-08-25T09:43:35.324Z,31.53
2022-08-25T09:44:44.719Z,31.57
2022-08-25T09:46:01.919Z,31.57
2022-08-25T09:47:20.681Z,31.61
2022-08-25T09:48:35.565Z,31.58
2022-08-25T09:49:41.614Z,31.58
2022-08-25T09:50:46.798Z,31.62
2022-08-25T09:51:52.755Z,31.62
2022-08-25T09:52:58.403Z,31.60
2022-08-25T09:54:18.476Z,31.61
2022-08-25T09:55:38.820Z,31.61
2022-08-25T09:56:56.149Z,31.66
2022-08-25T09:58:00.316Z,31.66
2022-08-25T09:59:34.579Z,31.71
2022-08-25T10:00:34.266Z,31.71
2022-08-25T10:01:41.371Z,31.83
2022-08-25T10:03:06.069Z,31.84
2022-08-25T10:04:19.027Z,31.84
2022-08-25T10:05:24.116Z,31.85
2022-08-25T10:06:35.394Z,31.91
2022-08-25T10:07:47.404Z,31.91
2022-08-25T10:08:51.063Z,31.90
2022-08-25T10:10:01.230Z,31.92
2022-08-25T10:11:08.672Z,31.95
2022-08-25T10:12:21.959Z,31.95
2022-08-25T10:13:39.634Z,32.03
2022-08-25T10:14:44.438Z,32.03
2022-08-25T10:15:50.247Z,32.06
2022-08-25T10:17:14.081Z,32.06
2022-08-25T10:18:29.846Z,31.91
2022-08-25T10:19:33.869Z,31.91
2022-08-25T10:20:38.359Z,31.82
2022-08-25T10:21:47.186Z,31.82
2022-08-25T10:22:53.014Z,31.78
2022-08-25T10:23:57.243Z,31.72
2022-08-25T10:25:04.731Z,31.69
2022-08-25T10:26:17.084Z,31.56
2022-08-25T10:27:40.018Z,31.51
2022-08-25T10:28:53.137Z,31.51
2022-08-25T10:30:04.214Z,31.38
2022-08-25T10:31:20.138Z,31.33
2022-08-25T10:32:36.639Z,31.33
2022-08-25T10:34:00.179Z,31.30
2022-08-25T10:35:08.265Z,31.30
2022-08-25T10:36:20.562Z,31.40
2022-08-25T10:37:40.162Z,31.50
2022-08-25T10:38:48.510Z,31.50
2022-08-25T10:39:58.250Z,31.47
2022-08-25T10:41:17.521Z,31.44
2022-08-25T10:42:51.427Z,31.44
2022-08-25T10:44:25.612Z,31.32
2022-08-25T10:45:32.572Z,31.29
2022-08-25T10:46:42.444Z,31.29
2022-08-25T10:47:53.201Z,31.19
2022-08-25T10:49:02.734Z,31.23
2022-08-25T10:50:12.372Z,31.26
2022-08-25T10:51:40.518Z,31.32
2022-08-25T10:52:59.591Z,31.32
2022-08-25T10:54:09.899Z,31.42
2022-08-25T10:55:25.873Z,31.42
2022-08-25T10:56:48.026Z,31.41
2022-08-25T10:58:08.775Z,31.47
2022-08-25T10:59:38.203Z,31.51
2022-08-25T11:00:46.543Z,31.51
2022-08-25T11:02:13.667Z,31.68
2022-08-25T11:03:43.293Z,31.68
2022-08-25T11:05:11.781Z,31.77
2022-08-25T11:07:53.504Z,31.99
2022-08-25T11:09:00.067Z,31.98
2022-08-25T11:10:26.820Z,31.98
2022-08-25T11:11:44.980Z,32.00
2022-08-25T11:13:01.118Z,32.00
2022-08-25T11:14:11.655Z,31.94
2022-08-25T11:15:21.590Z,31.95
2022-08-25T11:16:37.619Z,32.03
2022-08-25T11:18:14.784Z,32.03
2022-08-25T11:19:24.770Z,32.14
2022-08-25T11:20:35.368Z,32.21
2022-08-25T11:21:51.114Z,32.21
2022-08-25T11:23:07.188Z,32.22
2022-08-25T11:24:36.619Z,32.22
2022-08-25T11:25:47.263Z,32.16
2022-08-25T11:26:54.339Z,32.01
2022-08-25T11:28:13.298Z,31.74
2022-08-25T11:29:20.400Z,31.72
2022-08-25T11:30:25.951Z,31.72
2022-08-25T11:31:31.516Z,31.70
2022-08-25T11:32:37.835Z,31.69
2022-08-25T11:33:43.362Z,31.69
2022-08-25T11:34:47.772Z,31.70
2022-08-25T11:35:57.943Z,31.74
2022-08-25T11:37:07.221Z,31.79
2022-08-25T11:38:30.920Z,31.77
2022-08-25T11:39:57.289Z,31.77
2022-08-25T11:41:24.038Z,31.71
2022-08-25T11:42:39.930Z,31.65
2022-08-25T11:44:05.482Z,31.67
2022-08-25T11:45:45.761Z,31.60
2022-08-25T11:47:01.721Z,27.64
2022-08-25T11:48:37.302Z,31.68
2022-08-25T11:49:46.999Z,31.66
2022-08-25T11:51:09.617Z,30.80
2022-08-25T11:52:36.106Z,31.69
2022-08-25T11:53:42.516Z,31.69
2022-08-25T11:54:47.237Z,31.67
2022-08-25T11:55:54.529Z,31.73
2022-08-25T11:57:04.462Z,31.76
2022-08-25T11:58:28.021Z,31.76
2022-08-25T11:59:54.774Z,31.76
2022-08-25T12:01:05.694Z,31.70
2022-08-25T12:02:14.503Z,31.62
2022-08-25T12:03:38.695Z,31.56
2022-08-25T12:04:45.810Z,31.52
2022-08-25T12:05:55.893Z,31.52
2022-08-25T12:07:12.416Z,31.51
2022-08-25T12:08:24.457Z,31.51
2022-08-25T12:09:33.696Z,31.44
2022-08-25T12:11:10.935Z,31.35
2022-08-25T12:12:31.510Z,31.28
2022-08-25T12:13:49.625Z,31.28
2022-08-25T12:14:56.245Z,31.24
2022-08-25T12:16:02.997Z,31.24
2022-08-25T12:17:21.156Z,31.27
2022-08-25T12:18:38.536Z,31.31
2022-08-25T12:19:50.412Z,31.36
2022-08-25T12:20:59.108Z,31.35
2022-08-25T12:22:07.738Z,31.35
2022-08-25T12:23:15.888Z,31.43
2022-08-25T12:24:37.997Z,31.43
2022-08-25T12:25:46.688Z,31.43
2022-08-25T12:27:01.505Z,31.41
2022-08-25T12:28:16.033Z,31.46
2022-08-25T12:29:44.359Z,31.44
2022-08-25T12:30:54.613Z,31.44
2022-08-25T12:32:04.575Z,31.51
2022-08-25T12:33:23.664Z,31.46
2022-08-25T12:34:44.212Z,31.46
2022-08-25T12:35:53.924Z,31.45
2022-08-25T12:37:06.437Z,31.38
2022-08-25T12:38:20.046Z,31.40
2022-08-25T12:42:30.694Z,31.45
2022-08-25T12:43:43.928Z,31.43
2022-08-25T12:45:06.260Z,31.43
2022-08-25T12:46:23.909Z,31.42
2022-08-25T12:47:30.883Z,31.42
2022-08-25T12:48:37.882Z,31.36
2022-08-25T12:49:46.770Z,31.35
2022-08-25T12:51:09.309Z,31.35
2022-08-25T12:52:27.838Z,31.28
2022-08-25T12:53:42.146Z,31.33
2022-08-25T12:54:58.393Z,31.33
2022-08-25T12:56:05.229Z,31.28
2022-08-25T12:57:29.540Z,31.29
2022-08-25T12:59:00.806Z,31.29
2022-08-25T12:59:59.656Z,31.32
2022-08-25T13:01:35.445Z,31.32
2022-08-25T13:02:52.170Z,31.28
2022-08-25T13:04:09.406Z,31.32
2022-08-25T13:05:28.096Z,31.31
2022-08-25T13:07:01.095Z,31.31
2022-08-25T13:08:26.924Z,31.35
2022-08-25T13:10:04.261Z,31.28
2022-08-25T13:11:11.374Z,31.27
2022-08-25T13:12:27.994Z,31.27
2022-08-25T13:13:54.297Z,31.27
2022-08-25T13:14:58.963Z,31.22
2022-08-25T13:16:06.910Z,31.22
2022-08-25T13:17:12.112Z,31.20
2022-08-25T13:18:19.739Z,31.19
2022-08-25T13:19:25.250Z,31.19
2022-08-25T13:20:29.737Z,31.19
2022-08-25T13:21:39.771Z,31.17
2022-08-25T13:22:57.247Z,31.18
2022-08-25T13:24:05.334Z,31.21
2022-08-25T13:25:06.582Z,31.21
2022-08-25T13:26:15.237Z,31.17
2022-08-25T13:27:25.219Z,31.17
2022-08-25T13:28:37.693Z,31.09
2022-08-25T13:29:58.413Z,31.09
2022-08-25T13:31:23.190Z,31.09
2022-08-25T13:32:37.051Z,31.09
2022-08-25T13:34:01.972Z,31.11
2022-08-25T13:35:19.879Z,31.11
2022-08-25T13:36:27.060Z,31.06
2022-08-25T13:37:32.325Z,31.01
2022-08-25T13:38:36.435Z,31.07
2022-08-25T13:39:56.207Z,31.03
2022-08-25T13:40:50.122Z,31.07
2022-08-25T13:41:56.256Z,31.06
2022-08-25T13:43:03.314Z,31.04
2022-08-25T13:44:07.485Z,31.04
2022-08-25T13:45:16.129Z,31.06
2022-08-25T13:46:25.006Z,31.00
2022-08-25T13:47:43.779Z,31.00
2022-08-25T13:48:49.497Z,30.99
2022-08-25T13:49:52.111Z,31.02
2022-08-25T13:51:00.315Z,31.02
2022-08-25T13:52:08.990Z,31.01
2022-08-25T13:53:31.640Z,30.99
2022-08-25T13:54:36.963Z,30.99
2022-08-25T13:55:51.700Z,31.01
2022-08-25T13:56:46.731Z,31.01
2022-08-25T13:57:50.867Z,31.01
2022-08-25T13:58:57.277Z,31.01
2022-08-25T14:00:10.331Z,31.02
2022-08-25T14:01:22.878Z,31.03
2022-08-25T14:02:51.313Z,30.96
2022-08-25T14:04:01.054Z,30.96
2022-08-25T14:05:04.356Z,31.00
2022-08-25T14:06:19.591Z,30.98
2022-08-25T14:07:33.722Z,30.94
2022-08-25T14:08:37.065Z,30.91
2022-08-25T14:09:58.871Z,30.91
2022-08-25T14:11:06.011Z,30.88
2022-08-25T14:12:11.802Z,30.88
2022-08-25T14:13:18.933Z,30.94
2022-08-25T14:14:26.073Z,30.96
2022-08-25T14:15:32.555Z,30.92
2022-08-25T14:16:48.136Z,30.92
2022-08-25T14:18:13.823Z,30.87
2022-08-25T14:19:22.540Z,30.85
2022-08-25T14:20:33.327Z,30.81
2022-08-25T14:21:37.475Z,30.84
2022-08-25T14:22:45.697Z,30.84
2022-08-25T14:23:50.117Z,30.79
2022-08-25T14:24:56.346Z,30.78
2022-08-25T14:26:06.955Z,30.83
2022-08-25T14:27:06.413Z,30.79
2022-08-25T14:28:16.715Z,30.77
2022-08-25T14:29:20.853Z,30.73
2022-08-25T14:30:28.900Z,30.72
2022-08-25T14:31:34.997Z,30.73
2022-08-25T14:32:39.142Z,30.72
2022-08-25T14:33:56.353Z,30.68
2022-08-25T14:35:03.794Z,30.68
2022-08-25T14:36:09.961Z,30.70
2022-08-25T14:37:25.298Z,30.64
2022-08-25T14:38:28.883Z,30.70
2022-08-25T14:39:33.052Z,30.71
2022-08-25T14:40:37.403Z,30.66
2022-08-25T14:41:46.315Z,30.72
2022-08-25T14:42:51.468Z,30.65
2022-08-25T14:44:17.923Z,30.65
2022-08-25T14:45:23.893Z,30.64
2022-08-25T14:46:32.752Z,30.64
2022-08-25T14:47:38.280Z,30.65
2022-08-25T14:48:45.291Z,30.56
2022-08-25T14:49:51.043Z,30.56
2022-08-25T14:50:58.902Z,30.61
2022-08-25T14:52:12.728Z,30.59
2022-08-25T14:53:17.162Z,30.59
2022-08-25T14:54:24.235Z,30.65
2022-08-25T14:55:31.724Z,30.65
2022-08-25T14:56:36.020Z,30.65
2022-08-25T14:57:40.311Z,30.58
2022-08-25T14:58:48.271Z,30.54
2022-08-25T14:59:50.692Z,30.57
2022-08-25T15:00:56.951Z,30.57
2022-08-25T15:02:02.059Z,30.51
2022-08-25T15:03:07.918Z,30.51
2022-08-25T15:04:16.634Z,30.59
2022-08-25T15:05:30.685Z,30.59
2022-08-25T15:06:33.539Z,30.58
2022-08-25T15:07:38.008Z,30.55
2022-08-25T15:08:46.397Z,30.52
2022-08-25T15:09:51.592Z,30.56
2022-08-25T15:10:57.790Z,30.51
2022-08-25T15:12:01.831Z,30.47
2022-08-25T15:13:06.261Z,30.47
2022-08-25T15:14:12.283Z,30.42
2022-08-25T15:15:16.498Z,30.39
2022-08-25T15:16:34.125Z,30.37
2022-08-25T15:17:39.481Z,30.37
2022-08-25T15:18:44.036Z,30.36
2022-08-25T15:19:48.950Z,30.39
2022-08-25T15:20:52.935Z,30.39
2022-08-25T15:21:57.702Z,30.38
2022-08-25T15:23:04.967Z,30.37
2022-08-25T15:24:12.106Z,30.37
2022-08-25T15:25:17.971Z,29.42
2022-08-25T15:26:26.219Z,29.42
2022-08-25T15:27:30.852Z,30.33